Time;durP1;ratioP1;P1;durP2;ratioP2;P2;SDS_P1;SDS_P2;PMS_P1;PMS_P2;Temp;Humidity;BMP_temperature;BMP_pressure;BME280_temperature;BME280_humidity;BME280_pressure;Samples;Min_cycle;Max_cycle;Signal;HPM_P1;HPM_P2
2023/04/24 00:00:58;;;;;;;;;;;11.70;99.90;;;;;;7336076;19;109642;-62
2023/04/24 00:03:28;;;;;;;;;;;11.70;99.90;;;;;;7338220;19;108633;-62
2023/04/24 00:05:56;;;;;;;;;;;11.70;99.90;;;;;;7332144;19;109108;-62
2023/04/24 00:08:23;;;;;;;;;;;11.70;99.90;;;;;;7341734;19;109164;-62
2023/04/24 00:10:52;;;;;;;;;;;11.60;99.90;;;;;;7328926;19;113169;-62
2023/04/24 00:13:19;;;;;;;;;;;11.70;99.90;;;;;;7334800;19;110042;-62
2023/04/24 00:15:47;;;;;;;;;;;11.60;99.90;;;;;;7334774;19;110688;-62
2023/04/24 00:18:14;;;;;;;;;;;11.60;99.90;;;;;;7333692;19;108723;-63
2023/04/24 00:20:41;;;;;;;;;;;11.60;99.90;;;;;;7332366;19;112298;-62
2023/04/24 00:23:08;;;;;;;;;;;11.60;99.90;;;;;;7336458;19;109235;-62
2023/04/24 00:25:35;;;;;;;;;;;11.60;99.90;;;;;;7333002;19;108420;-62
2023/04/24 00:28:02;;;;;;;;;;;11.60;99.90;;;;;;7336266;19;110952;-62
2023/04/24 00:30:29;;;;;;;;;;;11.60;99.90;;;;;;7340264;19;108467;-62
2023/04/24 00:32:56;;;;;;;;;;;11.60;99.90;;;;;;7333442;19;112610;-62
2023/04/24 00:35:23;;;;;;;;;;;11.60;99.90;;;;;;7333149;19;109108;-62
2023/04/24 00:37:50;;;;;;;;;;;11.60;99.90;;;;;;7336034;19;110146;-62
2023/04/24 00:40:17;;;;;;;;;;;11.60;99.90;;;;;;7332242;19;110092;-62
2023/04/24 00:42:44;;;;;;;;;;;11.50;99.90;;;;;;7337107;19;109699;-62
2023/04/24 00:45:12;;;;;;;;;;;11.50;99.90;;;;;;7334487;19;108747;-62
2023/04/24 00:47:39;;;;;;;;;;;11.50;99.90;;;;;;7333411;19;109192;-62
2023/04/24 00:50:06;;;;;;;;;;;11.50;99.90;;;;;;7333193;19;112647;-62
2023/04/24 00:52:34;;;;;;;;;;;11.50;99.90;;;;;;7341147;19;108726;-62
2023/04/24 00:55:01;;;;;;;;;;;11.50;99.90;;;;;;7334723;19;108986;-62
2023/04/24 00:57:28;;;;;;;;;;;11.50;99.90;;;;;;7334740;19;108236;-62
2023/04/24 00:59:55;;;;;;;;;;;11.50;99.90;;;;;;7333500;19;109180;-62
2023/04/24 01:02:22;;;;;;;;;;;11.50;99.90;;;;;;7331367;19;108857;-62
2023/04/24 01:04:53;;;;;;;;;;;11.50;99.90;;;;;;7333601;19;109218;-62
2023/04/24 01:07:20;;;;;;;;;;;11.50;99.90;;;;;;7333173;19;110263;-62
2023/04/24 01:09:48;;;;;;;;;;;11.50;99.90;;;;;;7334360;19;109692;-62
2023/04/24 01:12:15;;;;;;;;;;;11.50;99.90;;;;;;7338586;19;111539;-62
2023/04/24 01:14:42;;;;;;;;;;;11.60;99.90;;;;;;7333490;19;109860;-64
2023/04/24 01:17:10;;;;;;;;;;;11.50;99.90;;;;;;7334619;19;109179;-62
2023/04/24 01:19:38;;;;;;;;;;;11.50;99.90;;;;;;7331847;19;109971;-63
2023/04/24 01:22:12;;;;;;;;;;;11.50;99.90;;;;;;7330201;19;109215;-66
2023/04/24 01:24:39;;;;;;;;;;;11.50;99.90;;;;;;7331698;19;109555;-63
2023/04/24 01:27:07;;;;;;;;;;;11.50;99.90;;;;;;7334566;19;109463;-62
2023/04/24 01:29:34;;;;;;;;;;;11.50;99.90;;;;;;7331777;19;108695;-62
2023/04/24 01:32:01;;;;;;;;;;;11.50;99.90;;;;;;7337470;19;110686;-62
2023/04/24 01:34:28;;;;;;;;;;;11.50;99.90;;;;;;7339627;19;110589;-62
2023/04/24 01:36:56;;;;;;;;;;;11.50;99.90;;;;;;7332877;19;110220;-62
2023/04/24 01:39:25;;;;;;;;;;;11.50;99.90;;;;;;7331321;19;110215;-62
2023/04/24 01:41:53;;;;;;;;;;;11.50;99.90;;;;;;7332850;19;109296;-62
2023/04/24 01:44:20;;;;;;;;;;;11.50;99.90;;;;;;7334532;19;108678;-62
2023/04/24 01:46:47;;;;;;;;;;;11.50;99.90;;;;;;7333156;19;109969;-62
2023/04/24 01:49:15;;;;;;;;;;;11.40;99.90;;;;;;7334266;19;110323;-62
2023/04/24 01:51:42;;;;;;;;;;;11.50;99.90;;;;;;7332998;19;108417;-62
2023/04/24 01:54:09;;;;;;;;;;;11.50;99.90;;;;;;7332173;19;109007;-62
2023/04/24 01:56:39;;;;;;;;;;;11.40;99.90;;;;;;7339010;19;112452;-62
2023/04/24 01:59:07;;;;;;;;;;;11.40;99.90;;;;;;7333313;19;109350;-62
2023/04/24 02:01:36;;;;;;;;;;;11.40;99.90;;;;;;7334145;19;109215;-62
2023/04/24 02:04:03;;;;;;;;;;;11.40;99.90;;;;;;7329710;19;109077;-62
2023/04/24 02:06:31;;;;;;;;;;;11.40;99.90;;;;;;7333678;19;109269;-62
2023/04/24 02:08:58;;;;;;;;;;;11.40;99.90;;;;;;7334892;19;109204;-62
2023/04/24 02:11:25;;;;;;;;;;;11.40;99.90;;;;;;7333377;19;108881;-62
2023/04/24 02:13:52;;;;;;;;;;;11.40;99.90;;;;;;7330693;19;109733;-62
2023/04/24 02:16:19;;;;;;;;;;;11.40;99.90;;;;;;7335236;19;108721;-62
2023/04/24 02:18:46;;;;;;;;;;;11.40;99.90;;;;;;7343916;19;109825;-61
2023/04/24 02:21:13;;;;;;;;;;;11.30;99.90;;;;;;7342068;19;109752;-62
2023/04/24 02:23:40;;;;;;;;;;;11.30;99.90;;;;;;7338444;19;108395;-61
2023/04/24 02:26:07;;;;;;;;;;;11.30;99.90;;;;;;7341041;19;109143;-61
2023/04/24 02:28:34;;;;;;;;;;;11.30;99.90;;;;;;7340528;19;109756;-61
2023/04/24 02:31:01;;;;;;;;;;;11.30;99.90;;;;;;7340982;19;109342;-61
2023/04/24 02:33:28;;;;;;;;;;;11.30;99.90;;;;;;7337757;19;109342;-61
2023/04/24 02:35:55;;;;;;;;;;;11.30;99.90;;;;;;7339999;19;109206;-62
2023/04/24 02:38:22;;;;;;;;;;;11.30;99.90;;;;;;7341210;19;109082;-62
2023/04/24 02:40:49;;;;;;;;;;;11.30;99.90;;;;;;7343842;19;108970;-62
2023/04/24 02:43:16;;;;;;;;;;;11.30;99.90;;;;;;7339628;19;108248;-61
2023/04/24 02:45:43;;;;;;;;;;;11.40;99.90;;;;;;7339049;19;110344;-62
2023/04/24 02:48:10;;;;;;;;;;;11.30;99.90;;;;;;7341979;19;108411;-62
2023/04/24 02:50:37;;;;;;;;;;;11.30;99.90;;;;;;7334913;19;110274;-62
2023/04/24 02:53:04;;;;;;;;;;;11.30;99.90;;;;;;7340515;19;111454;-61
2023/04/24 02:55:32;;;;;;;;;;;11.20;99.90;;;;;;7338351;19;110353;-62
2023/04/24 02:57:59;;;;;;;;;;;11.20;99.90;;;;;;7335217;19;109070;-61
2023/04/24 03:00:25;;;;;;;;;;;11.30;99.90;;;;;;7338487;19;109382;-61
2023/04/24 03:02:53;;;;;;;;;;;11.20;99.90;;;;;;7344833;19;111424;-61
2023/04/24 03:05:20;;;;;;;;;;;11.20;99.90;;;;;;7337589;19;110465;-61
2023/04/24 03:07:47;;;;;;;;;;;11.10;99.90;;;;;;7337803;19;108284;-62
2023/04/24 03:10:14;;;;;;;;;;;11.00;99.90;;;;;;7337612;19;108686;-61
2023/04/24 03:12:41;;;;;;;;;;;11.10;99.90;;;;;;7339426;19;110436;-61
2023/04/24 03:15:08;;;;;;;;;;;11.00;99.90;;;;;;7337139;19;108777;-61
2023/04/24 03:17:36;;;;;;;;;;;11.00;99.90;;;;;;7339663;19;108957;-61
2023/04/24 03:20:05;;;;;;;;;;;11.00;99.90;;;;;;7337435;19;109211;-61
2023/04/24 03:22:33;;;;;;;;;;;11.00;99.90;;;;;;7344381;19;108680;-61
2023/04/24 03:25:00;;;;;;;;;;;11.00;99.90;;;;;;7336515;19;109562;-61
2023/04/24 03:27:27;;;;;;;;;;;11.00;99.90;;;;;;7337116;19;109849;-61
2023/04/24 03:29:57;;;;;;;;;;;11.00;99.90;;;;;;7334535;19;108708;-61
2023/04/24 03:32:24;;;;;;;;;;;11.00;99.90;;;;;;7336252;19;111216;-61
2023/04/24 03:34:51;;;;;;;;;;;11.00;99.90;;;;;;7337677;19;109484;-61
2023/04/24 03:37:18;;;;;;;;;;;11.00;99.90;;;;;;7336356;19;109964;-61
2023/04/24 03:39:45;;;;;;;;;;;10.90;99.90;;;;;;7333776;19;109150;-62
2023/04/24 03:42:12;;;;;;;;;;;10.90;99.90;;;;;;7338927;19;109132;-61
2023/04/24 03:44:39;;;;;;;;;;;10.90;99.90;;;;;;7340808;19;108538;-62
2023/04/24 03:47:06;;;;;;;;;;;10.90;99.90;;;;;;7340408;19;109722;-61
2023/04/24 03:49:33;;;;;;;;;;;10.90;99.90;;;;;;7334511;19;108516;-61
2023/04/24 03:52:00;;;;;;;;;;;10.90;99.90;;;;;;7336897;19;111203;-61
2023/04/24 03:54:28;;;;;;;;;;;10.90;99.90;;;;;;7335326;19;110050;-61
2023/04/24 03:56:55;;;;;;;;;;;10.80;99.90;;;;;;7336035;19;110099;-62
2023/04/24 03:59:22;;;;;;;;;;;10.90;99.90;;;;;;7337270;19;109465;-62
2023/04/24 04:01:49;;;;;;;;;;;10.80;99.90;;;;;;7336534;19;108716;-62
2023/04/24 04:04:16;;;;;;;;;;;10.90;99.90;;;;;;7335730;19;108999;-61
2023/04/24 04:06:44;;;;;;;;;;;10.80;99.90;;;;;;7342757;19;110057;-62
2023/04/24 04:09:11;;;;;;;;;;;10.80;99.90;;;;;;7337390;19;108826;-61
2023/04/24 04:11:38;;;;;;;;;;;10.80;99.90;;;;;;7334173;19;109266;-61
2023/04/24 04:14:05;;;;;;;;;;;10.80;99.90;;;;;;7337516;19;109354;-61
2023/04/24 04:16:32;;;;;;;;;;;10.80;99.90;;;;;;7336023;19;108610;-61
2023/04/24 04:18:59;;;;;;;;;;;10.80;99.90;;;;;;7337019;19;109589;-61
2023/04/24 04:21:26;;;;;;;;;;;10.80;99.90;;;;;;7336723;19;109966;-61
2023/04/24 04:23:53;;;;;;;;;;;10.70;99.90;;;;;;7335397;19;108508;-61
2023/04/24 04:26:21;;;;;;;;;;;10.70;99.90;;;;;;7336179;19;109477;-61
2023/04/24 04:28:48;;;;;;;;;;;10.70;99.90;;;;;;7339277;19;109147;-61
2023/04/24 04:31:15;;;;;;;;;;;10.70;99.90;;;;;;7337117;19;110246;-61
2023/04/24 04:33:43;;;;;;;;;;;10.70;99.90;;;;;;7335337;19;108719;-61
2023/04/24 04:36:10;;;;;;;;;;;10.70;99.90;;;;;;7335644;19;108734;-61
2023/04/24 04:38:37;;;;;;;;;;;10.70;99.90;;;;;;7333680;19;109294;-61
2023/04/24 04:41:04;;;;;;;;;;;10.70;99.90;;;;;;7334325;19;109046;-61
2023/04/24 04:43:32;;;;;;;;;;;10.70;99.90;;;;;;7337109;19;112482;-62
2023/04/24 04:46:00;;;;;;;;;;;10.70;99.90;;;;;;7333552;19;109299;-61
2023/04/24 04:48:28;;;;;;;;;;;10.70;99.90;;;;;;7336359;19;108513;-61
2023/04/24 04:50:55;;;;;;;;;;;10.70;99.90;;;;;;7338479;19;108512;-61
2023/04/24 04:53:22;;;;;;;;;;;10.60;99.90;;;;;;7337272;19;108563;-61
2023/04/24 04:55:49;;;;;;;;;;;10.60;99.90;;;;;;7334239;19;109149;-61
2023/04/24 04:58:16;;;;;;;;;;;10.60;99.90;;;;;;7335193;19;111471;-61
2023/04/24 05:00:44;;;;;;;;;;;10.60;99.90;;;;;;7333991;19;108450;-61
2023/04/24 05:03:10;;;;;;;;;;;10.60;99.90;;;;;;7336193;19;110051;-61
2023/04/24 05:05:47;;;;;;;;;;;10.60;99.90;;;;;;7334061;19;110267;-61
2023/04/24 05:08:14;;;;;;;;;;;10.60;99.90;;;;;;7334627;19;109810;-61
2023/04/24 05:10:53;;;;;;;;;;;10.60;99.90;;;;;;7333447;19;109336;-61
2023/04/24 05:13:20;;;;;;;;;;;10.60;99.90;;;;;;7339233;19;109417;-62
2023/04/24 05:15:58;;;;;;;;;;;10.60;99.90;;;;;;7335446;19;108718;-61
2023/04/24 05:18:25;;;;;;;;;;;10.50;99.90;;;;;;7332411;19;110073;-61
2023/04/24 05:20:52;;;;;;;;;;;10.50;99.90;;;;;;7334514;19;108434;-61
2023/04/24 05:23:18;;;;;;;;;;;10.60;99.90;;;;;;7334602;19;110193;-61
2023/04/24 05:25:46;;;;;;;;;;;10.60;99.90;;;;;;7334844;19;109133;-61
2023/04/24 05:28:13;;;;;;;;;;;10.60;99.90;;;;;;7334585;19;109697;-62
2023/04/24 05:30:40;;;;;;;;;;;10.50;99.90;;;;;;7334649;19;110218;-60
2023/04/24 05:33:08;;;;;;;;;;;10.50;99.90;;;;;;7339439;19;110141;-61
2023/04/24 05:35:35;;;;;;;;;;;10.50;99.90;;;;;;7333983;19;108648;-61
2023/04/24 05:38:02;;;;;;;;;;;10.50;99.90;;;;;;7335066;19;110210;-61
2023/04/24 05:40:29;;;;;;;;;;;10.50;99.90;;;;;;7334086;19;109378;-61
2023/04/24 05:42:56;;;;;;;;;;;10.50;99.90;;;;;;7334580;19;108614;-61
2023/04/24 05:45:24;;;;;;;;;;;10.50;99.90;;;;;;7333466;19;110309;-61
2023/04/24 05:47:52;;;;;;;;;;;10.40;99.90;;;;;;7336211;19;109183;-62
2023/04/24 05:50:19;;;;;;;;;;;10.40;99.90;;;;;;7335395;19;108331;-62
2023/04/24 05:52:46;;;;;;;;;;;10.40;99.90;;;;;;7337669;19;109491;-63
2023/04/24 05:55:13;;;;;;;;;;;10.30;99.90;;;;;;7356182;19;111000;-89
2023/04/24 05:57:40;;;;;;;;;;;10.40;99.90;;;;;;7377001;19;110724;-90
2023/04/24 06:00:08;;;;;;;;;;;10.30;99.90;;;;;;7378624;19;109632;-91
2023/04/24 06:02:35;;;;;;;;;;;10.30;99.90;;;;;;7366375;19;110619;-88
2023/04/24 06:05:04;;;;;;;;;;;10.30;99.90;;;;;;7349094;19;113224;-89
2023/04/24 06:07:31;;;;;;;;;;;10.30;99.90;;;;;;7345662;19;108519;-89
2023/04/24 06:09:58;;;;;;;;;;;10.30;99.90;;;;;;7347338;19;112178;-89
2023/04/24 06:12:25;;;;;;;;;;;10.30;99.90;;;;;;7343917;19;113169;-90
2023/04/24 06:17:26;;;;;;;;;;;10.20;99.90;;;;;;7345010;19;109353;-61
2023/04/24 06:19:53;;;;;;;;;;;10.20;99.90;;;;;;7339171;19;108501;-61
2023/04/24 06:22:20;;;;;;;;;;;10.20;99.90;;;;;;7341127;19;109241;-61
2023/04/24 06:24:48;;;;;;;;;;;10.20;99.90;;;;;;7341219;19;109606;-61
2023/04/24 06:27:15;;;;;;;;;;;10.20;99.90;;;;;;7340364;19;108417;-61
2023/04/24 06:29:42;;;;;;;;;;;10.20;99.90;;;;;;7339731;19;108967;-61
2023/04/24 06:32:09;;;;;;;;;;;10.30;99.90;;;;;;7339916;19;109242;-61
2023/04/24 06:34:36;;;;;;;;;;;10.20;99.90;;;;;;7338711;19;111260;-61
2023/04/24 06:37:03;;;;;;;;;;;10.20;99.90;;;;;;7340560;19;111093;-61
2023/04/24 06:39:30;;;;;;;;;;;10.30;99.90;;;;;;7342315;19;109644;-61
2023/04/24 06:41:58;;;;;;;;;;;10.30;99.90;;;;;;7339744;19;109639;-61
2023/04/24 06:44:25;;;;;;;;;;;10.30;99.90;;;;;;7339232;19;109351;-61
2023/04/24 06:46:52;;;;;;;;;;;10.30;99.90;;;;;;7339245;19;109357;-61
2023/04/24 06:49:19;;;;;;;;;;;10.30;99.90;;;;;;7339611;19;108416;-61
2023/04/24 06:51:47;;;;;;;;;;;10.30;99.90;;;;;;7338938;19;109033;-61
2023/04/24 06:54:14;;;;;;;;;;;10.30;99.90;;;;;;7335472;19;108711;-60
2023/04/24 06:56:41;;;;;;;;;;;10.30;99.90;;;;;;7339644;19;109179;-60
2023/04/24 06:59:08;;;;;;;;;;;10.30;99.90;;;;;;7337354;19;109418;-60
2023/04/24 07:01:35;;;;;;;;;;;10.30;99.90;;;;;;7344737;19;108433;-61
2023/04/24 07:04:02;;;;;;;;;;;10.40;99.90;;;;;;7336381;19;109073;-61
2023/04/24 07:06:31;;;;;;;;;;;10.30;99.90;;;;;;7339164;19;108925;-61
2023/04/24 07:09:00;;;;;;;;;;;10.40;99.90;;;;;;7340309;19;109374;-60
2023/04/24 07:11:29;;;;;;;;;;;10.30;99.90;;;;;;7335330;19;109695;-61
2023/04/24 07:13:56;;;;;;;;;;;10.40;99.90;;;;;;7336245;19;109554;-61
2023/04/24 07:16:23;;;;;;;;;;;10.40;99.90;;;;;;7337019;19;108927;-61
2023/04/24 07:18:50;;;;;;;;;;;10.50;99.90;;;;;;7336560;19;110887;-62
2023/04/24 07:21:17;;;;;;;;;;;10.50;99.90;;;;;;7338574;19;109017;-61
2023/04/24 07:23:44;;;;;;;;;;;10.50;99.90;;;;;;7340308;19;109578;-61
2023/04/24 07:26:11;;;;;;;;;;;10.50;99.90;;;;;;7340141;19;110200;-61
2023/04/24 07:28:38;;;;;;;;;;;10.50;99.90;;;;;;7339442;19;108685;-61
2023/04/24 07:31:05;;;;;;;;;;;10.60;99.90;;;;;;7339437;19;109135;-61
2023/04/24 07:33:32;;;;;;;;;;;10.50;99.90;;;;;;7339476;19;108824;-61
2023/04/24 07:36:00;;;;;;;;;;;10.50;99.90;;;;;;7334814;19;108979;-61
2023/04/24 07:38:29;;;;;;;;;;;10.50;99.90;;;;;;7337738;19;110636;-61
2023/04/24 07:40:56;;;;;;;;;;;10.50;99.90;;;;;;7337842;19;108596;-61
2023/04/24 07:43:23;;;;;;;;;;;10.50;99.90;;;;;;7342570;19;109050;-61
2023/04/24 07:45:51;;;;;;;;;;;10.50;99.90;;;;;;7338546;19;109711;-61
2023/04/24 07:48:18;;;;;;;;;;;10.40;99.90;;;;;;7339754;19;109713;-61
2023/04/24 07:50:45;;;;;;;;;;;10.50;99.90;;;;;;7337648;19;110654;-61
2023/04/24 07:53:12;;;;;;;;;;;10.50;99.90;;;;;;7337001;19;109760;-61
2023/04/24 07:55:39;;;;;;;;;;;10.50;99.90;;;;;;7336096;19;108687;-61
2023/04/24 07:58:06;;;;;;;;;;;10.60;99.90;;;;;;7336785;19;109557;-61
2023/04/24 08:00:33;;;;;;;;;;;10.60;99.90;;;;;;7336677;19;108731;-61
2023/04/24 08:03:00;;;;;;;;;;;10.70;99.90;;;;;;7338598;19;109178;-62
2023/04/24 08:05:28;;;;;;;;;;;10.70;99.90;;;;;;7343349;19;111510;-61
2023/04/24 08:07:55;;;;;;;;;;;10.80;99.90;;;;;;7336337;19;108896;-61
2023/04/24 08:10:23;;;;;;;;;;;10.80;99.90;;;;;;7334876;19;110742;-62
2023/04/24 08:12:50;;;;;;;;;;;10.90;99.90;;;;;;7337867;19;108893;-63
2023/04/24 08:15:17;;;;;;;;;;;11.00;99.90;;;;;;7335945;19;108401;-63
2023/04/24 08:17:44;;;;;;;;;;;11.10;99.90;;;;;;7337674;19;109526;-62
2023/04/24 08:20:15;;;;;;;;;;;11.20;99.90;;;;;;7336177;19;111180;-62
2023/04/24 08:22:43;;;;;;;;;;;11.20;99.90;;;;;;7336749;19;109317;-62
2023/04/24 08:25:10;;;;;;;;;;;11.20;99.90;;;;;;7337490;19;110814;-62
2023/04/24 08:27:38;;;;;;;;;;;11.20;99.90;;;;;;7335370;19;108830;-70
2023/04/24 08:30:06;;;;;;;;;;;11.30;99.90;;;;;;7331103;19;111426;-70
2023/04/24 08:32:33;;;;;;;;;;;11.40;99.90;;;;;;7336772;19;108840;-70
2023/04/24 08:35:00;;;;;;;;;;;11.50;99.90;;;;;;7336198;19;109100;-70
2023/04/24 08:37:27;;;;;;;;;;;11.50;99.90;;;;;;7330781;19;109291;-71
2023/04/24 08:39:54;;;;;;;;;;;11.60;99.90;;;;;;7330249;19;108732;-70
2023/04/24 08:42:21;;;;;;;;;;;11.70;99.90;;;;;;7334836;19;109074;-72
2023/04/24 08:44:49;;;;;;;;;;;11.70;99.90;;;;;;7336208;19;109357;-71
2023/04/24 08:47:17;;;;;;;;;;;11.70;99.90;;;;;;7339564;19;108975;-74
2023/04/24 08:49:45;;;;;;;;;;;11.60;99.90;;;;;;7346212;19;108981;-72
2023/04/24 08:52:12;;;;;;;;;;;11.50;99.90;;;;;;7341144;19;109004;-73
2023/04/24 08:54:41;;;;;;;;;;;11.50;99.90;;;;;;7339160;19;109481;-72
2023/04/24 08:57:10;;;;;;;;;;;11.50;99.90;;;;;;7335913;19;109993;-75
2023/04/24 08:59:37;;;;;;;;;;;11.50;99.90;;;;;;7338787;19;108315;-75
2023/04/24 09:02:05;;;;;;;;;;;11.50;99.90;;;;;;7333322;19;109276;-76
2023/04/24 09:04:33;;;;;;;;;;;11.50;99.90;;;;;;7336658;19;109279;-75
2023/04/24 09:07:01;;;;;;;;;;;11.50;99.90;;;;;;7335794;19;109891;-74
2023/04/24 09:09:30;;;;;;;;;;;11.50;99.90;;;;;;7336252;19;108431;-74
2023/04/24 09:11:57;;;;;;;;;;;11.40;99.90;;;;;;7340734;19;110368;-75
2023/04/24 09:14:25;;;;;;;;;;;11.40;99.90;;;;;;7338096;19;108960;-73
2023/04/24 09:16:52;;;;;;;;;;;11.50;99.90;;;;;;7335481;19;110028;-71
2023/04/24 09:19:21;;;;;;;;;;;11.50;99.90;;;;;;7336942;19;108929;-71
2023/04/24 09:21:48;;;;;;;;;;;11.60;99.90;;;;;;7335938;19;108345;-72
2023/04/24 09:24:20;;;;;;;;;;;11.70;99.90;;;;;;7335257;19;109292;-72
2023/04/24 09:26:47;;;;;;;;;;;11.90;99.90;;;;;;7340302;19;109527;-71
2023/04/24 09:29:18;;;;;;;;;;;12.00;99.90;;;;;;7344081;19;112068;-71
2023/04/24 09:31:45;;;;;;;;;;;12.10;99.90;;;;;;7345989;19;109198;-73
2023/04/24 09:34:12;;;;;;;;;;;12.20;99.90;;;;;;7348527;19;108449;-73
2023/04/24 09:36:41;;;;;;;;;;;12.20;99.90;;;;;;7342121;19;109139;-73
2023/04/24 09:39:12;;;;;;;;;;;12.20;99.90;;;;;;7344698;19;108973;-72
2023/04/24 09:41:49;;;;;;;;;;;12.20;99.90;;;;;;7344006;19;109417;-73
2023/04/24 09:44:17;;;;;;;;;;;12.30;99.90;;;;;;7343213;19;111974;-73
2023/04/24 09:46:49;;;;;;;;;;;12.30;99.90;;;;;;7343953;19;109207;-73
2023/04/24 09:49:20;;;;;;;;;;;12.30;99.90;;;;;;7340779;19;109333;-73
2023/04/24 09:51:47;;;;;;;;;;;12.30;99.90;;;;;;7343907;19;113153;-72
2023/04/24 09:54:15;;;;;;;;;;;12.30;99.90;;;;;;7348981;19;109051;-73
2023/04/24 09:56:45;;;;;;;;;;;12.30;99.90;;;;;;7343086;19;109483;-72
2023/04/24 09:59:13;;;;;;;;;;;12.30;99.90;;;;;;7343242;19;108480;-72
2023/04/24 10:01:42;;;;;;;;;;;12.20;99.90;;;;;;7342929;19;108826;-73
2023/04/24 10:04:18;;;;;;;;;;;12.10;99.90;;;;;;7342284;19;110969;-72
2023/04/24 10:06:45;;;;;;;;;;;12.10;99.90;;;;;;7342023;19;108450;-73
2023/04/24 10:09:13;;;;;;;;;;;12.10;99.90;;;;;;7339241;19;109060;-77
2023/04/24 10:11:41;;;;;;;;;;;12.00;99.90;;;;;;7340165;19;109208;-78
2023/04/24 10:14:10;;;;;;;;;;;12.00;99.90;;;;;;7341100;19;108663;-78
2023/04/24 10:16:39;;;;;;;;;;;12.10;99.90;;;;;;7346222;19;108677;-76
2023/04/24 10:19:06;;;;;;;;;;;12.30;99.90;;;;;;7341539;19;110985;-73
2023/04/24 10:21:34;;;;;;;;;;;12.40;99.90;;;;;;7341804;19;108381;-71
2023/04/24 10:24:03;;;;;;;;;;;12.50;99.90;;;;;;7339762;19;109209;-72
2023/04/24 10:26:31;;;;;;;;;;;12.50;99.90;;;;;;7342069;19;109033;-74
2023/04/24 10:28:58;;;;;;;;;;;12.50;99.90;;;;;;7340678;19;109806;-72
2023/04/24 10:31:26;;;;;;;;;;;12.50;99.90;;;;;;7341011;19;110223;-72
2023/04/24 10:33:53;;;;;;;;;;;12.50;99.90;;;;;;7340512;19;108792;-73
2023/04/24 10:36:22;;;;;;;;;;;12.60;99.90;;;;;;7340515;19;110511;-72
2023/04/24 10:38:49;;;;;;;;;;;12.70;99.90;;;;;;7344069;19;111554;-72
2023/04/24 10:41:19;;;;;;;;;;;12.90;99.90;;;;;;7341885;19;109111;-72
2023/04/24 10:43:48;;;;;;;;;;;13.00;99.90;;;;;;7342732;19;110409;-71
2023/04/24 10:46:21;;;;;;;;;;;13.00;99.90;;;;;;7340881;19;108749;-71
2023/04/24 10:48:52;;;;;;;;;;;12.90;99.90;;;;;;7340692;19;109436;-71
2023/04/24 10:51:21;;;;;;;;;;;12.70;99.90;;;;;;7340218;19;109522;-72
2023/04/24 10:53:50;;;;;;;;;;;12.70;99.90;;;;;;7338825;19;109190;-72
2023/04/24 10:56:17;;;;;;;;;;;12.60;99.90;;;;;;7338163;19;108520;-71
2023/04/24 10:58:52;;;;;;;;;;;12.60;99.90;;;;;;7340473;19;109191;-71
2023/04/24 11:01:29;;;;;;;;;;;12.70;99.90;;;;;;7346318;19;109524;-72
2023/04/24 11:03:57;;;;;;;;;;;12.70;99.90;;;;;;7337725;19;109320;-72
2023/04/24 11:06:31;;;;;;;;;;;12.70;99.90;;;;;;7341419;19;108845;-71
2023/04/24 11:09:15;;;;;;;;;;;12.60;99.90;;;;;;7341031;19;111040;-71
2023/04/24 11:11:46;;;;;;;;;;;12.70;99.90;;;;;;7340644;19;109414;-71
2023/04/24 11:14:16;;;;;;;;;;;12.90;99.90;;;;;;7343723;19;108353;-71
2023/04/24 11:17:01;;;;;;;;;;;13.00;99.90;;;;;;7339881;19;108772;-71
2023/04/24 11:19:30;;;;;;;;;;;13.10;99.90;;;;;;7337909;19;109314;-70
2023/04/24 11:22:02;;;;;;;;;;;13.20;99.90;;;;;;7341136;19;108586;-71
2023/04/24 11:24:32;;;;;;;;;;;13.30;99.90;;;;;;7344799;19;109072;-71
2023/04/24 11:27:13;;;;;;;;;;;13.30;99.90;;;;;;7337348;19;108659;-72
2023/04/24 11:29:42;;;;;;;;;;;13.40;99.90;;;;;;7339967;19;108311;-71
2023/04/24 11:32:18;;;;;;;;;;;13.50;99.90;;;;;;7338915;19;109169;-72
2023/04/24 11:34:46;;;;;;;;;;;13.50;99.90;;;;;;7341428;19;108802;-72
2023/04/24 11:37:13;;;;;;;;;;;13.60;99.90;;;;;;7336282;19;108822;-72
2023/04/24 11:39:41;;;;;;;;;;;13.70;99.90;;;;;;7339916;19;110361;-73
2023/04/24 11:42:09;;;;;;;;;;;13.70;99.90;;;;;;7338338;19;109270;-72
2023/04/24 11:44:37;;;;;;;;;;;13.80;99.90;;;;;;7342538;19;112501;-72
2023/04/24 11:47:05;;;;;;;;;;;14.00;99.90;;;;;;7341641;19;108403;-73
2023/04/24 11:49:32;;;;;;;;;;;14.20;99.90;;;;;;7337195;19;108931;-73
2023/04/24 11:52:02;;;;;;;;;;;14.50;99.90;;;;;;7336527;19;109161;-74
2023/04/24 11:54:29;;;;;;;;;;;14.50;99.90;;;;;;7337771;19;108761;-73
2023/04/24 11:56:57;;;;;;;;;;;14.60;99.90;;;;;;7337960;19;110165;-73
2023/04/24 11:59:24;;;;;;;;;;;14.50;99.90;;;;;;7338496;19;109621;-73
2023/04/24 12:01:51;;;;;;;;;;;14.50;99.90;;;;;;7338375;19;110327;-74
2023/04/24 12:04:19;;;;;;;;;;;14.40;99.90;;;;;;7338550;19;109037;-74
2023/04/24 12:07:08;;;;;;;;;;;14.40;99.90;;;;;;7346136;19;110741;-74
2023/04/24 12:09:42;;;;;;;;;;;14.40;99.90;;;;;;7339020;19;108580;-73
2023/04/24 12:12:10;;;;;;;;;;;14.30;99.90;;;;;;7337661;19;110500;-74
2023/04/24 12:14:43;;;;;;;;;;;14.30;99.90;;;;;;7338784;19;108478;-73
2023/04/24 12:17:10;;;;;;;;;;;14.10;99.90;;;;;;7336684;19;109272;-73
2023/04/24 12:19:37;;;;;;;;;;;14.10;99.90;;;;;;7337100;19;110489;-74
2023/04/24 12:22:05;;;;;;;;;;;14.00;99.90;;;;;;7336287;19;109543;-73
2023/04/24 12:24:32;;;;;;;;;;;14.10;99.90;;;;;;7339389;19;110624;-71
2023/04/24 12:27:01;;;;;;;;;;;14.00;99.90;;;;;;7334107;19;110207;-70
2023/04/24 12:29:28;;;;;;;;;;;13.90;99.90;;;;;;7341227;19;109610;-71
2023/04/24 12:31:55;;;;;;;;;;;13.90;99.90;;;;;;7334637;19;110680;-70
2023/04/24 12:34:23;;;;;;;;;;;13.90;99.90;;;;;;7334539;19;109312;-70
2023/04/24 12:36:50;;;;;;;;;;;14.00;99.90;;;;;;7336069;19;108592;-71
2023/04/24 12:39:18;;;;;;;;;;;14.10;99.90;;;;;;7336614;19;109295;-70
2023/04/24 12:42:04;;;;;;;;;;;14.10;99.90;;;;;;7334021;19;110391;-70
2023/04/24 12:44:31;;;;;;;;;;;14.10;99.90;;;;;;7333836;19;108814;-70
2023/04/24 12:46:58;;;;;;;;;;;14.20;99.90;;;;;;7334259;19;110597;-70
2023/04/24 12:49:26;;;;;;;;;;;14.30;99.90;;;;;;7335021;19;110683;-71
2023/04/24 12:51:53;;;;;;;;;;;14.40;99.90;;;;;;7340505;19;109748;-73
2023/04/24 12:54:20;;;;;;;;;;;14.40;99.90;;;;;;7333850;19;110395;-74
2023/04/24 12:56:47;;;;;;;;;;;14.50;99.90;;;;;;7336892;19;108539;-74
2023/04/24 12:59:14;;;;;;;;;;;14.50;99.90;;;;;;7335691;19;109123;-74
2023/04/24 13:01:41;;;;;;;;;;;14.50;99.90;;;;;;7332885;19;109210;-75
2023/04/24 13:04:08;;;;;;;;;;;14.50;99.90;;;;;;7337017;19;109341;-73
2023/04/24 13:06:36;;;;;;;;;;;14.60;99.90;;;;;;7336221;19;109529;-73
2023/04/24 13:09:03;;;;;;;;;;;14.70;99.90;;;;;;7337509;19;108732;-73
2023/04/24 13:11:30;;;;;;;;;;;14.80;99.90;;;;;;7331842;19;109956;-75
2023/04/24 13:13:57;;;;;;;;;;;14.90;99.90;;;;;;7337187;19;109070;-74
2023/04/24 13:16:24;;;;;;;;;;;14.90;99.90;;;;;;7336155;19;108965;-75
2023/04/24 13:18:51;;;;;;;;;;;15.00;99.90;;;;;;7334390;19;110135;-79
2023/04/24 13:21:19;;;;;;;;;;;15.30;99.90;;;;;;7336473;19;109307;-76
2023/04/24 13:23:46;;;;;;;;;;;15.30;99.90;;;;;;7332574;19;113505;-75
2023/04/24 13:26:13;;;;;;;;;;;15.30;99.90;;;;;;7333314;19;109665;-74
2023/04/24 13:28:40;;;;;;;;;;;15.20;99.90;;;;;;7334859;19;108690;-73
2023/04/24 13:31:07;;;;;;;;;;;15.30;99.90;;;;;;7334832;19;109148;-72
2023/04/24 13:33:34;;;;;;;;;;;15.50;99.90;;;;;;7333314;19;109410;-71
2023/04/24 13:36:01;;;;;;;;;;;15.50;99.90;;;;;;7339740;19;108881;-70
2023/04/24 13:38:29;;;;;;;;;;;15.50;99.90;;;;;;7332366;19;113205;-69
2023/04/24 13:40:56;;;;;;;;;;;15.60;99.90;;;;;;7334204;19;113632;-68
2023/04/24 13:43:23;;;;;;;;;;;15.50;99.90;;;;;;7334900;19;111511;-69
2023/04/24 13:45:50;;;;;;;;;;;15.40;99.90;;;;;;7336000;19;111376;-68
2023/04/24 13:48:17;;;;;;;;;;;15.50;99.90;;;;;;7336902;19;108488;-69
2023/04/24 13:50:44;;;;;;;;;;;15.60;99.90;;;;;;7333401;19;108806;-69
2023/04/24 13:53:11;;;;;;;;;;;15.60;99.90;;;;;;7335655;19;110626;-68
2023/04/24 13:55:39;;;;;;;;;;;15.70;99.90;;;;;;7337274;19;108671;-69
2023/04/24 13:58:06;;;;;;;;;;;15.80;99.90;;;;;;7334564;19;110392;-68
2023/04/24 14:00:33;;;;;;;;;;;16.00;99.90;;;;;;7332563;19;110055;-69
2023/04/24 14:03:00;;;;;;;;;;;16.20;99.90;;;;;;7335208;19;108370;-69
2023/04/24 14:05:27;;;;;;;;;;;16.30;99.90;;;;;;7335630;19;110611;-69
2023/04/24 14:07:55;;;;;;;;;;;16.20;99.90;;;;;;7330953;19;109487;-69
2023/04/24 14:10:22;;;;;;;;;;;16.00;99.90;;;;;;7333461;19;109147;-68